sensor_id;sensor_type;location;lat;lon;timestamp;pressure;altitude;pressure_sealevel;temperature;humidity
76084;BME280;64789;0.000;0.000;2023-07-29T00:00:43;93528.44;;;18.58;48.32
76084;BME280;64789;0.000;0.000;2023-07-29T00:03:09;93526.97;;;18.57;48.00
76084;BME280;64789;0.000;0.000;2023-07-29T00:05:34;93530.53;;;18.57;47.99
76084;BME280;64789;0.000;0.000;2023-07-29T00:08:00;93533.91;;;18.44;48.34
76084;BME280;64789;0.000;0.000;2023-07-29T00:10:26;93538.59;;;18.39;48.45
76084;BME280;64789;0.000;0.000;2023-07-29T00:12:51;93538.34;;;18.35;48.48
76084;BME280;64789;0.000;0.000;2023-07-29T00:15:17;93535.97;;;18.20;49.31
76084;BME280;64789;0.000;0.000;2023-07-29T00:17:43;93537.19;;;18.17;49.13
76084;BME280;64789;0.000;0.000;2023-07-29T00:20:08;93527.72;;;18.24;48.84
76084;BME280;64789;0.000;0.000;2023-07-29T00:22:34;93538.06;;;18.20;49.25
76084;BME280;64789;0.000;0.000;2023-07-29T00:25:00;93539.41;;;17.86;50.49
76084;BME280;64789;0.000;0.000;2023-07-29T00:27:25;93541.78;;;17.90;50.15
76084;BME280;64789;0.000;0.000;2023-07-29T00:29:51;93540.91;;;17.87;50.46
76084;BME280;64789;0.000;0.000;2023-07-29T00:32:17;93542.66;;;17.92;50.00
76084;BME280;64789;0.000;0.000;2023-07-29T00:34:44;93533.03;;;17.86;50.32
76084;BME280;64789;0.000;0.000;2023-07-29T00:37:10;93533.19;;;17.66;51.21
76084;BME280;64789;0.000;0.000;2023-07-29T00:39:36;93531.97;;;17.69;50.97
76084;BME280;64789;0.000;0.000;2023-07-29T00:42:02;93526.72;;;17.76;50.78
76084;BME280;64789;0.000;0.000;2023-07-29T00:44:28;93531.69;;;17.65;51.03
76084;BME280;64789;0.000;0.000;2023-07-29T00:46:53;93526.41;;;17.60;51.27
76084;BME280;64789;0.000;0.000;2023-07-29T00:49:20;93525.59;;;17.48;51.64
76084;BME280;64789;0.000;0.000;2023-07-29T00:51:46;93528.53;;;17.50;51.46
76084;BME280;64789;0.000;0.000;2023-07-29T00:54:12;93520.06;;;17.50;51.60
76084;BME280;64789;0.000;0.000;2023-07-29T00:56:39;93517.66;;;17.56;51.56
76084;BME280;64789;0.000;0.000;2023-07-29T00:59:05;93512.41;;;17.62;51.14
76084;BME280;64789;0.000;0.000;2023-07-29T01:01:31;93516.84;;;17.65;50.75
76084;BME280;64789;0.000;0.000;2023-07-29T01:03:57;93513.75;;;17.61;50.92
76084;BME280;64789;0.000;0.000;2023-07-29T01:09:09;93522.72;;;17.57;51.34
76084;BME280;64789;0.000;0.000;2023-07-29T01:11:41;93512.94;;;17.49;51.62
76084;BME280;64789;0.000;0.000;2023-07-29T01:16:56;93513.63;;;17.38;52.39
76084;BME280;64789;0.000;0.000;2023-07-29T01:19:32;93513.06;;;17.30;52.82
76084;BME280;64789;0.000;0.000;2023-07-29T01:22:05;93511.47;;;17.27;53.34
76084;BME280;64789;0.000;0.000;2023-07-29T01:24:32;93515.66;;;17.26;53.06
76084;BME280;64789;0.000;0.000;2023-07-29T01:26:58;93515.22;;;17.20;53.09
76084;BME280;64789;0.000;0.000;2023-07-29T01:29:27;93518.66;;;17.18;52.96
76084;BME280;64789;0.000;0.000;2023-07-29T01:31:54;93519.66;;;17.01;53.25
76084;BME280;64789;0.000;0.000;2023-07-29T01:34:32;93527.50;;;16.82;54.73
76084;BME280;64789;0.000;0.000;2023-07-29T01:37:00;93524.03;;;16.62;54.92
76084;BME280;64789;0.000;0.000;2023-07-29T01:39:28;93522.13;;;16.55;55.46
76084;BME280;64789;0.000;0.000;2023-07-29T01:41:55;93519.78;;;16.42;55.61
76084;BME280;64789;0.000;0.000;2023-07-29T01:44:21;93516.03;;;16.49;55.19
76084;BME280;64789;0.000;0.000;2023-07-29T01:46:47;93514.44;;;16.36;56.02
76084;BME280;64789;0.000;0.000;2023-07-29T01:49:12;93511.44;;;16.44;55.56
76084;BME280;64789;0.000;0.000;2023-07-29T01:51:38;93510.38;;;16.49;55.73
76084;BME280;64789;0.000;0.000;2023-07-29T01:54:04;93506.97;;;16.60;55.03
76084;BME280;64789;0.000;0.000;2023-07-29T01:56:29;93511.50;;;16.75;54.38
76084;BME280;64789;0.000;0.000;2023-07-29T01:58:58;93517.16;;;16.75;54.34
76084;BME280;64789;0.000;0.000;2023-07-29T02:01:23;93507.25;;;16.64;55.31
76084;BME280;64789;0.000;0.000;2023-07-29T02:03:49;93510.06;;;16.64;55.11
76084;BME280;64789;0.000;0.000;2023-07-29T02:06:20;93511.06;;;16.69;54.60
76084;BME280;64789;0.000;0.000;2023-07-29T02:08:45;93519.22;;;16.74;54.32
76084;BME280;64789;0.000;0.000;2023-07-29T02:11:11;93522.31;;;16.78;54.35
76084;BME280;64789;0.000;0.000;2023-07-29T02:13:37;93523.06;;;16.79;54.13
76084;BME280;64789;0.000;0.000;2023-07-29T02:16:03;93515.91;;;16.78;54.13
76084;BME280;64789;0.000;0.000;2023-07-29T02:18:28;93515.34;;;16.79;54.26
76084;BME280;64789;0.000;0.000;2023-07-29T02:20:54;93520.38;;;16.81;54.59
76084;BME280;64789;0.000;0.000;2023-07-29T02:23:20;93521.50;;;16.87;54.50
76084;BME280;64789;0.000;0.000;2023-07-29T02:25:45;93514.28;;;16.84;54.42
76084;BME280;64789;0.000;0.000;2023-07-29T02:28:11;93520.78;;;16.87;54.45
76084;BME280;64789;0.000;0.000;2023-07-29T02:30:36;93526.47;;;16.77;54.57
76084;BME280;64789;0.000;0.000;2023-07-29T02:33:02;93520.41;;;16.71;54.96
76084;BME280;64789;0.000;0.000;2023-07-29T02:35:28;93525.69;;;16.86;54.16
76084;BME280;64789;0.000;0.000;2023-07-29T02:37:53;93529.56;;;16.81;54.45
76084;BME280;64789;0.000;0.000;2023-07-29T02:40:21;93526.44;;;16.87;54.20
76084;BME280;64789;0.000;0.000;2023-07-29T02:42:48;93521.50;;;16.87;54.09
76084;BME280;64789;0.000;0.000;2023-07-29T02:45:13;93519.50;;;16.78;54.43
76084;BME280;64789;0.000;0.000;2023-07-29T02:47:39;93516.47;;;16.86;54.58
76084;BME280;64789;0.000;0.000;2023-07-29T02:50:05;93525.56;;;16.84;54.44
76084;BME280;64789;0.000;0.000;2023-07-29T02:52:30;93522.88;;;16.86;54.53
76084;BME280;64789;0.000;0.000;2023-07-29T02:54:56;93516.94;;;16.82;55.29
76084;BME280;64789;0.000;0.000;2023-07-29T02:57:21;93524.72;;;16.72;55.80
76084;BME280;64789;0.000;0.000;2023-07-29T02:59:47;93526.91;;;16.53;55.99
76084;BME280;64789;0.000;0.000;2023-07-29T03:02:13;93525.44;;;16.32;57.02
76084;BME280;64789;0.000;0.000;2023-07-29T03:04:41;93527.72;;;16.15;57.47
76084;BME280;64789;0.000;0.000;2023-07-29T03:07:06;93526.28;;;15.95;58.13
76084;BME280;64789;0.000;0.000;2023-07-29T03:09:32;93525.88;;;15.79;58.60
76084;BME280;64789;0.000;0.000;2023-07-29T03:11:58;93527.06;;;15.76;59.23
76084;BME280;64789;0.000;0.000;2023-07-29T03:14:24;93533.44;;;15.67;59.07
76084;BME280;64789;0.000;0.000;2023-07-29T03:16:50;93540.88;;;15.62;59.49
76084;BME280;64789;0.000;0.000;2023-07-29T03:19:17;93539.97;;;15.60;59.39
76084;BME280;64789;0.000;0.000;2023-07-29T03:21:42;93539.19;;;15.98;57.92
76084;BME280;64789;0.000;0.000;2023-07-29T03:24:08;93538.66;;;16.30;56.85
76084;BME280;64789;0.000;0.000;2023-07-29T03:26:34;93549.09;;;16.08;57.53
76084;BME280;64789;0.000;0.000;2023-07-29T03:28:59;93551.78;;;16.06;58.00
76084;BME280;64789;0.000;0.000;2023-07-29T03:31:25;93549.84;;;16.09;57.86
76084;BME280;64789;0.000;0.000;2023-07-29T03:33:50;93553.53;;;16.21;57.33
76084;BME280;64789;0.000;0.000;2023-07-29T03:36:16;93543.88;;;16.14;58.10
76084;BME280;64789;0.000;0.000;2023-07-29T03:38:42;93554.75;;;16.08;58.21
76084;BME280;64789;0.000;0.000;2023-07-29T03:41:10;93545.41;;;16.06;58.42
76084;BME280;64789;0.000;0.000;2023-07-29T03:43:35;93550.59;;;16.00;58.50
76084;BME280;64789;0.000;0.000;2023-07-29T03:46:01;93548.97;;;15.97;58.99
76084;BME280;64789;0.000;0.000;2023-07-29T03:48:27;93542.44;;;15.85;60.23
76084;BME280;64789;0.000;0.000;2023-07-29T03:50:52;93548.09;;;15.75;60.88
76084;BME280;64789;0.000;0.000;2023-07-29T03:53:18;93552.28;;;15.64;60.82
76084;BME280;64789;0.000;0.000;2023-07-29T03:55:44;93552.28;;;15.64;61.56
76084;BME280;64789;0.000;0.000;2023-07-29T03:58:09;93540.84;;;15.72;61.75
76084;BME280;64789;0.000;0.000;2023-07-29T04:00:35;93550.47;;;15.78;61.70
76084;BME280;64789;0.000;0.000;2023-07-29T04:03:01;93544.09;;;15.78;61.11
76084;BME280;64789;0.000;0.000;2023-07-29T04:05:26;93539.50;;;15.83;61.81
76084;BME280;64789;0.000;0.000;2023-07-29T04:07:52;93547.22;;;15.92;62.11
76084;BME280;64789;0.000;0.000;2023-07-29T04:10:19;93545.56;;;15.89;62.71
76084;BME280;64789;0.000;0.000;2023-07-29T04:12:45;93547.78;;;16.00;61.95
76084;BME280;64789;0.000;0.000;2023-07-29T04:15:10;93551.03;;;16.06;62.30
76084;BME280;64789;0.000;0.000;2023-07-29T04:17:36;93550.13;;;16.13;62.45
76084;BME280;64789;0.000;0.000;2023-07-29T04:20:03;93553.19;;;16.26;62.67
76084;BME280;64789;0.000;0.000;2023-07-29T04:22:33;93549.91;;;16.39;61.59
76084;BME280;64789;0.000;0.000;2023-07-29T04:24:58;93544.22;;;16.49;60.77
76084;BME280;64789;0.000;0.000;2023-07-29T04:27:24;93553.00;;;16.53;61.82
76084;BME280;64789;0.000;0.000;2023-07-29T04:29:50;93546.59;;;16.62;62.95
76084;BME280;64789;0.000;0.000;2023-07-29T04:32:15;93557.22;;;16.73;62.32
76084;BME280;64789;0.000;0.000;2023-07-29T04:34:41;93557.66;;;16.79;62.61
76084;BME280;64789;0.000;0.000;2023-07-29T04:37:07;93558.53;;;16.82;62.39
76084;BME280;64789;0.000;0.000;2023-07-29T04:39:33;93550.41;;;16.97;61.04
76084;BME280;64789;0.000;0.000;2023-07-29T04:41:58;93558.69;;;17.05;60.47
76084;BME280;64789;0.000;0.000;2023-07-29T04:44:24;93557.31;;;17.16;60.53
76084;BME280;64789;0.000;0.000;2023-07-29T04:46:50;93553.09;;;17.26;59.84
76084;BME280;64789;0.000;0.000;2023-07-29T04:49:19;93561.75;;;17.40;59.06
76084;BME280;64789;0.000;0.000;2023-07-29T04:51:45;93558.25;;;17.51;59.76
76084;BME280;64789;0.000;0.000;2023-07-29T04:54:10;93561.81;;;17.51;59.68
76084;BME280;64789;0.000;0.000;2023-07-29T04:56:36;93565.34;;;17.61;59.39
76084;BME280;64789;0.000;0.000;2023-07-29T04:59:01;93562.56;;;17.73;57.66
76084;BME280;64789;0.000;0.000;2023-07-29T05:01:27;93571.72;;;17.83;58.16
76084;BME280;64789;0.000;0.000;2023-07-29T05:03:53;93574.47;;;17.93;58.02
76084;BME280;64789;0.000;0.000;2023-07-29T05:06:18;93569.97;;;17.99;58.15
76084;BME280;64789;0.000;0.000;2023-07-29T05:08:44;93576.88;;;18.08;57.99
76084;BME280;64789;0.000;0.000;2023-07-29T05:11:10;93580.22;;;18.16;57.32
76084;BME280;64789;0.000;0.000;2023-07-29T05:13:36;93586.88;;;18.20;57.40
76084;BME280;64789;0.000;0.000;2023-07-29T05:16:02;93591.44;;;18.25;57.61
76084;BME280;64789;0.000;0.000;2023-07-29T05:18:27;93591.22;;;18.33;56.75
76084;BME280;64789;0.000;0.000;2023-07-29T05:20:53;93598.63;;;18.38;55.56
76084;BME280;64789;0.000;0.000;2023-07-29T05:23:19;93587.13;;;18.24;55.56
76084;BME280;64789;0.000;0.000;2023-07-29T05:25:44;93598.00;;;18.39;55.65
76084;BME280;64789;0.000;0.000;2023-07-29T05:28:10;93596.59;;;18.50;54.88
76084;BME280;64789;0.000;0.000;2023-07-29T05:30:35;93590.81;;;18.60;55.43
76084;BME280;64789;0.000;0.000;2023-07-29T05:33:05;93593.31;;;18.77;55.39
76084;BME280;64789;0.000;0.000;2023-07-29T05:35:33;93594.81;;;18.89;54.76
76084;BME280;64789;0.000;0.000;2023-07-29T05:37:58;93597.50;;;18.99;54.50
76084;BME280;64789;0.000;0.000;2023-07-29T05:40:24;93593.06;;;19.08;54.50
76084;BME280;64789;0.000;0.000;2023-07-29T05:42:50;93595.94;;;19.19;54.15
76084;BME280;64789;0.000;0.000;2023-07-29T05:45:15;93595.16;;;19.30;53.43
76084;BME280;64789;0.000;0.000;2023-07-29T05:47:41;93595.69;;;19.38;53.47
76084;BME280;64789;0.000;0.000;2023-07-29T05:50:07;93609.34;;;19.30;52.91
76084;BME280;64789;0.000;0.000;2023-07-29T05:52:33;93603.44;;;19.49;53.60
76084;BME280;64789;0.000;0.000;2023-07-29T05:54:59;93592.97;;;19.63;53.29
76084;BME280;64789;0.000;0.000;2023-07-29T05:57:25;93597.97;;;19.77;53.14
76084;BME280;64789;0.000;0.000;2023-07-29T05:59:50;93608.66;;;19.90;52.69
76084;BME280;64789;0.000;0.000;2023-07-29T06:02:16;93612.19;;;20.02;52.77
76084;BME280;64789;0.000;0.000;2023-07-29T06:04:42;93611.53;;;20.15;51.76
76084;BME280;64789;0.000;0.000;2023-07-29T06:07:08;93604.88;;;20.22;51.63
76084;BME280;64789;0.000;0.000;2023-07-29T06:09:34;93614.31;;;20.38;51.90
76084;BME280;64789;0.000;0.000;2023-07-29T06:12:00;93616.03;;;20.43;51.19
76084;BME280;64789;0.000;0.000;2023-07-29T06:14:26;93609.84;;;20.47;51.26
76084;BME280;64789;0.000;0.000;2023-07-29T06:16:51;93608.63;;;20.38;51.10
76084;BME280;64789;0.000;0.000;2023-07-29T06:19:17;93601.44;;;20.49;51.57
76084;BME280;64789;0.000;0.000;2023-07-29T06:21:43;93603.56;;;20.62;50.63
76084;BME280;64789;0.000;0.000;2023-07-29T06:24:09;93598.84;;;20.66;50.53
76084;BME280;64789;0.000;0.000;2023-07-29T06:26:35;93608.50;;;20.86;50.21
76084;BME280;64789;0.000;0.000;2023-07-29T06:29:00;93606.78;;;21.07;50.31
76084;BME280;64789;0.000;0.000;2023-07-29T06:31:26;93596.50;;;21.27;49.96
76084;BME280;64789;0.000;0.000;2023-07-29T06:33:51;93597.75;;;21.37;49.21
76084;BME280;64789;0.000;0.000;2023-07-29T06:36:17;93600.63;;;21.51;48.96
76084;BME280;64789;0.000;0.000;2023-07-29T06:38:43;93597.97;;;21.55;48.60
76084;BME280;64789;0.000;0.000;2023-07-29T06:41:08;93596.72;;;21.58;48.25
76084;BME280;64789;0.000;0.000;2023-07-29T06:43:34;93595.88;;;21.69;48.13
76084;BME280;64789;0.000;0.000;2023-07-29T06:46:00;93592.72;;;21.90;48.25
76084;BME280;64789;0.000;0.000;2023-07-29T06:48:25;93596.47;;;21.81;47.38
76084;BME280;64789;0.000;0.000;2023-07-29T06:50:51;93589.84;;;22.04;47.81
76084;BME280;64789;0.000;0.000;2023-07-29T06:53:17;93582.09;;;21.91;47.34
76084;BME280;64789;0.000;0.000;2023-07-29T06:55:43;93585.09;;;22.08;47.44
76084;BME280;64789;0.000;0.000;2023-07-29T06:58:09;93580.97;;;22.25;47.00
76084;BME280;64789;0.000;0.000;2023-07-29T07:00:34;93592.59;;;22.45;46.70
76084;BME280;64789;0.000;0.000;2023-07-29T07:03:00;93581.03;;;22.56;46.09
76084;BME280;64789;0.000;0.000;2023-07-29T07:05:26;93579.13;;;22.61;45.78
76084;BME280;64789;0.000;0.000;2023-07-29T07:07:52;93577.81;;;22.77;45.46
76084;BME280;64789;0.000;0.000;2023-07-29T07:10:17;93572.66;;;22.74;44.62
76084;BME280;64789;0.000;0.000;2023-07-29T07:12:43;93582.69;;;22.91;44.81
76084;BME280;64789;0.000;0.000;2023-07-29T07:15:09;93579.69;;;23.02;44.63
76084;BME280;64789;0.000;0.000;2023-07-29T07:17:34;93581.72;;;23.15;44.34
76084;BME280;64789;0.000;0.000;2023-07-29T07:20:00;93583.81;;;23.30;44.18
76084;BME280;64789;0.000;0.000;2023-07-29T07:22:26;93588.88;;;23.47;43.47
76084;BME280;64789;0.000;0.000;2023-07-29T07:24:52;93579.53;;;23.45;42.46
76084;BME280;64789;0.000;0.000;2023-07-29T07:27:18;93583.63;;;23.58;42.72
76084;BME280;64789;0.000;0.000;2023-07-29T07:29:43;93586.63;;;23.77;43.43
76084;BME280;64789;0.000;0.000;2023-07-29T07:32:09;93585.72;;;23.88;42.74
76084;BME280;64789;0.000;0.000;2023-07-29T07:34:35;93588.41;;;24.02;42.46
76084;BME280;64789;0.000;0.000;2023-07-29T07:37:01;93583.53;;;24.20;42.53
76084;BME280;64789;0.000;0.000;2023-07-29T07:39:26;93587.66;;;24.17;40.81
76084;BME280;64789;0.000;0.000;2023-07-29T07:41:52;93588.19;;;24.29;41.69
76084;BME280;64789;0.000;0.000;2023-07-29T07:44:18;93582.22;;;24.41;41.65
76084;BME280;64789;0.000;0.000;2023-07-29T07:46:45;93595.78;;;24.58;40.94
76084;BME280;64789;0.000;0.000;2023-07-29T07:49:10;93584.13;;;24.69;41.00
76084;BME280;64789;0.000;0.000;2023-07-29T07:51:36;93592.19;;;24.75;40.48
76084;BME280;64789;0.000;0.000;2023-07-29T07:54:02;93595.06;;;24.93;40.92
76084;BME280;64789;0.000;0.000;2023-07-29T07:56:27;93594.59;;;24.80;39.60
76084;BME280;64789;0.000;0.000;2023-07-29T07:58:53;93583.81;;;24.79;40.54
76084;BME280;64789;0.000;0.000;2023-07-29T08:01:19;93594.09;;;25.04;40.14
76084;BME280;64789;0.000;0.000;2023-07-29T08:03:45;93596.75;;;25.17;39.66
76084;BME280;64789;0.000;0.000;2023-07-29T08:06:10;93600.31;;;25.35;39.67
76084;BME280;64789;0.000;0.000;2023-07-29T08:08:36;93596.13;;;25.38;38.87
76084;BME280;64789;0.000;0.000;2023-07-29T08:11:02;93582.56;;;25.39;38.28
76084;BME280;64789;0.000;0.000;2023-07-29T08:13:28;93584.34;;;25.48;37.75
76084;BME280;64789;0.000;0.000;2023-07-29T08:15:54;93589.81;;;25.60;37.29
76084;BME280;64789;0.000;0.000;2023-07-29T08:18:19;93584.53;;;25.34;37.36
76084;BME280;64789;0.000;0.000;2023-07-29T08:20:55;93582.91;;;25.67;37.34
76084;BME280;64789;0.000;0.000;2023-07-29T08:23:26;93585.91;;;25.90;37.18
76084;BME280;64789;0.000;0.000;2023-07-29T08:25:55;93588.31;;;25.98;37.47
76084;BME280;64789;0.000;0.000;2023-07-29T08:28:22;93588.81;;;25.92;38.02
76084;BME280;64789;0.000;0.000;2023-07-29T08:30:47;93591.53;;;26.08;36.88
76084;BME280;64789;0.000;0.000;2023-07-29T08:33:13;93584.78;;;26.19;36.20
76084;BME280;64789;0.000;0.000;2023-07-29T08:35:39;93584.88;;;26.21;36.58
76084;BME280;64789;0.000;0.000;2023-07-29T08:38:05;93581.22;;;26.40;36.53
76084;BME280;64789;0.000;0.000;2023-07-29T08:40:31;93585.75;;;26.47;35.69
76084;BME280;64789;0.000;0.000;2023-07-29T08:42:57;93584.81;;;26.62;35.98
76084;BME280;64789;0.000;0.000;2023-07-29T08:45:23;93575.09;;;26.71;35.69
76084;BME280;64789;0.000;0.000;2023-07-29T08:47:50;93579.22;;;26.66;34.80
76084;BME280;64789;0.000;0.000;2023-07-29T08:50:20;93572.69;;;26.86;35.93
76084;BME280;64789;0.000;0.000;2023-07-29T08:52:47;93573.22;;;26.80;34.80
76084;BME280;64789;0.000;0.000;2023-07-29T08:55:14;93568.53;;;26.91;34.44
76084;BME280;64789;0.000;0.000;2023-07-29T08:57:40;93579.84;;;27.08;34.71
76084;BME280;64789;0.000;0.000;2023-07-29T09:00:06;93578.22;;;27.25;34.59
76084;BME280;64789;0.000;0.000;2023-07-29T09:02:32;93567.78;;;27.35;34.02
76084;BME280;64789;0.000;0.000;2023-07-29T09:04:57;93564.72;;;27.29;33.03
76084;BME280;64789;0.000;0.000;2023-07-29T09:07:23;93560.63;;;26.89;32.64
76084;BME280;64789;0.000;0.000;2023-07-29T09:09:50;93567.94;;;26.94;33.06
76084;BME280;64789;0.000;0.000;2023-07-29T09:12:15;93556.72;;;27.26;33.55
76084;BME280;64789;0.000;0.000;2023-07-29T09:14:41;93563.88;;;27.49;32.81
76084;BME280;64789;0.000;0.000;2023-07-29T09:17:07;93559.03;;;27.31;32.26
76084;BME280;64789;0.000;0.000;2023-07-29T09:19:33;93553.56;;;27.40;32.57
76084;BME280;64789;0.000;0.000;2023-07-29T09:22:00;93559.28;;;27.63;33.18
76084;BME280;64789;0.000;0.000;2023-07-29T09:24:25;93559.28;;;27.89;32.72
76084;BME280;64789;0.000;0.000;2023-07-29T09:26:55;93562.53;;;28.01;31.16
76084;BME280;64789;0.000;0.000;2023-07-29T09:29:24;93565.44;;;28.03;30.66
76084;BME280;64789;0.000;0.000;2023-07-29T09:31:53;93551.03;;;28.01;30.56
76084;BME280;64789;0.000;0.000;2023-07-29T09:34:18;93556.16;;;28.05;31.43
76084;BME280;64789;0.000;0.000;2023-07-29T09:36:44;93551.69;;;28.25;31.49
76084;BME280;64789;0.000;0.000;2023-07-29T09:39:10;93555.97;;;28.24;31.05
76084;BME280;64789;0.000;0.000;2023-07-29T09:41:36;93553.81;;;27.99;30.83
76084;BME280;64789;0.000;0.000;2023-07-29T09:44:02;93548.03;;;27.97;30.89
76084;BME280;64789;0.000;0.000;2023-07-29T09:46:35;93542.59;;;28.07;31.04
76084;BME280;64789;0.000;0.000;2023-07-29T09:49:05;93544.34;;;28.20;30.59
76084;BME280;64789;0.000;0.000;2023-07-29T09:51:31;93547.16;;;28.44;30.46
76084;BME280;64789;0.000;0.000;2023-07-29T09:53:57;93545.50;;;28.64;30.01
76084;BME280;64789;0.000;0.000;2023-07-29T09:56:27;93546.53;;;28.77;29.39
76084;BME280;64789;0.000;0.000;2023-07-29T09:58:52;93540.31;;;28.87;29.07
76084;BME280;64789;0.000;0.000;2023-07-29T10:01:18;93541.03;;;28.87;28.07
76084;BME280;64789;0.000;0.000;2023-07-29T10:03:44;93541.00;;;28.85;29.02
76084;BME280;64789;0.000;0.000;2023-07-29T10:06:10;93535.78;;;28.78;26.60
76084;BME280;64789;0.000;0.000;2023-07-29T10:08:36;93530.28;;;28.88;27.77
76084;BME280;64789;0.000;0.000;2023-07-29T10:11:08;93525.03;;;28.50;26.43
76084;BME280;64789;0.000;0.000;2023-07-29T10:13:35;93529.50;;;28.57;26.58
76084;BME280;64789;0.000;0.000;2023-07-29T10:16:01;93527.94;;;28.52;27.40
76084;BME280;64789;0.000;0.000;2023-07-29T10:18:27;93527.25;;;28.82;27.93
76084;BME280;64789;0.000;0.000;2023-07-29T10:20:53;93530.72;;;29.08;27.94
76084;BME280;64789;0.000;0.000;2023-07-29T10:23:19;93526.91;;;29.29;28.00
76084;BME280;64789;0.000;0.000;2023-07-29T10:25:49;93524.25;;;29.39;27.75
76084;BME280;64789;0.000;0.000;2023-07-29T10:28:15;93512.88;;;29.47;27.53
76084;BME280;64789;0.000;0.000;2023-07-29T10:30:44;93507.50;;;29.65;27.10
76084;BME280;64789;0.000;0.000;2023-07-29T10:33:10;93501.09;;;29.69;26.67
76084;BME280;64789;0.000;0.000;2023-07-29T10:35:36;93507.44;;;29.61;25.24
76084;BME280;64789;0.000;0.000;2023-07-29T10:38:03;93493.66;;;29.56;25.51
76084;BME280;64789;0.000;0.000;2023-07-29T10:40:46;93498.59;;;29.51;27.19
76084;BME280;64789;0.000;0.000;2023-07-29T10:43:12;93493.78;;;29.64;26.54
76084;BME280;64789;0.000;0.000;2023-07-29T10:45:40;93489.56;;;29.69;26.31
76084;BME280;64789;0.000;0.000;2023-07-29T10:48:13;93489.97;;;29.51;26.35
76084;BME280;64789;0.000;0.000;2023-07-29T10:53:41;93480.69;;;29.90;26.36
76084;BME280;64789;0.000;0.000;2023-07-29T10:56:07;93469.28;;;29.99;26.95
76084;BME280;64789;0.000;0.000;2023-07-29T10:58:33;93464.50;;;29.75;25.15
76084;BME280;64789;0.000;0.000;2023-07-29T11:00:59;93466.28;;;29.90;27.10
76084;BME280;64789;0.000;0.000;2023-07-29T11:03:25;93469.28;;;29.99;26.48
76084;BME280;64789;0.000;0.000;2023-07-29T11:05:54;93469.63;;;29.79;25.30
76084;BME280;64789;0.000;0.000;2023-07-29T11:08:22;93470.53;;;29.87;24.74
76084;BME280;64789;0.000;0.000;2023-07-29T11:11:07;93468.41;;;29.90;26.26
76084;BME280;64789;0.000;0.000;2023-07-29T11:13:35;93469.31;;;30.01;25.78
76084;BME280;64789;0.000;0.000;2023-07-29T11:16:01;93465.22;;;30.14;25.73
76084;BME280;64789;0.000;0.000;2023-07-29T11:18:29;93465.38;;;30.22;25.55
76084;BME280;64789;0.000;0.000;2023-07-29T11:20:55;93461.88;;;30.27;25.53
76084;BME280;64789;0.000;0.000;2023-07-29T11:23:26;93458.47;;;30.37;24.99
76084;BME280;64789;0.000;0.000;2023-07-29T11:25:52;93460.06;;;30.48;25.85
76084;BME280;64789;0.000;0.000;2023-07-29T11:28:18;93456.44;;;30.45;24.97
76084;BME280;64789;0.000;0.000;2023-07-29T11:30:43;93457.78;;;30.40;25.24
76084;BME280;64789;0.000;0.000;2023-07-29T11:33:09;93455.81;;;30.51;24.48
76084;BME280;64789;0.000;0.000;2023-07-29T11:35:35;93456.03;;;30.65;25.17
76084;BME280;64789;0.000;0.000;2023-07-29T11:38:00;93456.25;;;30.81;24.99
76084;BME280;64789;0.000;0.000;2023-07-29T11:40:26;93449.94;;;30.91;24.86
76084;BME280;64789;0.000;0.000;2023-07-29T11:42:52;93442.63;;;30.86;23.43
76084;BME280;64789;0.000;0.000;2023-07-29T11:45:18;93436.78;;;30.82;24.33
76084;BME280;64789;0.000;0.000;2023-07-29T11:47:45;93434.09;;;30.94;24.91
76084;BME280;64789;0.000;0.000;2023-07-29T11:50:11;93450.63;;;30.89;25.17
76084;BME280;64789;0.000;0.000;2023-07-29T11:52:41;93445.38;;;30.76;24.02
76084;BME280;64789;0.000;0.000;2023-07-29T11:55:07;93434.50;;;30.74;23.58
76084;BME280;64789;0.000;0.000;2023-07-29T11:57:34;93438.28;;;30.85;24.68
76084;BME280;64789;0.000;0.000;2023-07-29T12:00:02;93442.88;;;31.02;24.85
76084;BME280;64789;0.000;0.000;2023-07-29T12:02:34;93427.84;;;31.09;24.54
76084;BME280;64789;0.000;0.000;2023-07-29T12:05:01;93425.00;;;31.13;24.51
76084;BME280;64789;0.000;0.000;2023-07-29T12:07:28;93438.22;;;31.31;25.19
76084;BME280;64789;0.000;0.000;2023-07-29T12:09:53;93434.34;;;31.10;24.12
76084;BME280;64789;0.000;0.000;2023-07-29T12:12:19;93424.16;;;31.03;24.04
76084;BME280;64789;0.000;0.000;2023-07-29T12:14:47;93415.94;;;30.85;23.49
76084;BME280;64789;0.000;0.000;2023-07-29T12:17:13;93411.03;;;30.94;24.52
76084;BME280;64789;0.000;0.000;2023-07-29T12:19:39;93416.16;;;31.01;24.93
76084;BME280;64789;0.000;0.000;2023-07-29T12:22:06;93404.66;;;31.03;24.25
76084;BME280;64789;0.000;0.000;2023-07-29T12:24:33;93406.88;;;31.07;25.01
76084;BME280;64789;0.000;0.000;2023-07-29T12:26:59;93410.69;;;31.24;24.99
76084;BME280;64789;0.000;0.000;2023-07-29T12:29:25;93405.59;;;31.20;24.36
76084;BME280;64789;0.000;0.000;2023-07-29T12:32:01;93406.28;;;31.18;24.66
76084;BME280;64789;0.000;0.000;2023-07-29T12:34:27;93420.19;;;31.32;24.55
76084;BME280;64789;0.000;0.000;2023-07-29T12:36:54;93401.38;;;31.29;24.23
76084;BME280;64789;0.000;0.000;2023-07-29T12:41:46;93408.00;;;31.40;24.64
76084;BME280;64789;0.000;0.000;2023-07-29T12:44:12;93405.16;;;31.42;24.57
76084;BME280;64789;0.000;0.000;2023-07-29T12:46:38;93406.66;;;31.45;24.46
76084;BME280;64789;0.000;0.000;2023-07-29T12:49:04;93417.31;;;31.34;24.95
76084;BME280;64789;0.000;0.000;2023-07-29T12:51:30;93414.47;;;30.84;24.31
76084;BME280;64789;0.000;0.000;2023-07-29T12:53:56;93411.34;;;30.66;24.22
76084;BME280;64789;0.000;0.000;2023-07-29T12:56:21;93402.25;;;30.40;24.69
76084;BME280;64789;0.000;0.000;2023-07-29T12:58:47;93404.50;;;30.43;26.13
76084;BME280;64789;0.000;0.000;2023-07-29T13:01:13;93406.44;;;30.31;25.02
76084;BME280;64789;0.000;0.000;2023-07-29T13:03:42;93404.97;;;30.30;24.19
76084;BME280;64789;0.000;0.000;2023-07-29T13:06:08;93407.03;;;30.23;24.08
76084;BME280;64789;0.000;0.000;2023-07-29T13:08:34;93407.69;;;30.20;24.22
76084;BME280;64789;0.000;0.000;2023-07-29T13:10:59;93410.63;;;30.22;25.01
76084;BME280;64789;0.000;0.000;2023-07-29T13:13:25;93406.03;;;30.07;24.74
76084;BME280;64789;0.000;0.000;2023-07-29T13:15:50;93412.88;;;30.27;25.15